Time;durP1;ratioP1;P1;durP2;ratioP2;P2;SDS_P1;SDS_P2;PMS_P1;PMS_P2;Temp;Humidity;BMP_temperature;BMP_pressure;BME280_temperature;BME280_humidity;BME280_pressure;Samples;Min_cycle;Max_cycle;Signal;HPM_P1;HPM_P2
2021/12/22 00:00:14;;;;;;;4.42;2.20;;;;;;;0.73;35.99;102557.67;1753459;80;21505;-51
2021/12/22 00:02:46;;;;;;;3.02;2.20;;;;;;;0.72;36.18;102557.22;1758526;80;21026;-52
2021/12/22 00:05:09;;;;;;;4.75;2.30;;;;;;;0.71;36.11;102561.45;1764916;80;21514;-51
2021/12/22 00:07:36;;;;;;;3.70;2.40;;;;;;;0.69;35.98;102562.19;1758012;80;21051;-51
2021/12/22 00:10:04;;;;;;;3.52;2.40;;;;;;;0.68;35.87;102568.13;1751078;80;21045;-52
2021/12/22 00:12:31;;;;;;;3.45;2.02;;;;;;;0.68;35.96;102571.97;1775034;80;21053;-50
2021/12/22 00:14:58;;;;;;;3.77;2.10;;;;;;;0.66;35.94;102567.18;1771708;80;21037;-51
2021/12/22 00:17:24;;;;;;;4.85;2.70;;;;;;;0.65;35.95;102570.53;1758913;80;21054;-52
2021/12/22 00:19:52;;;;;;;3.27;2.08;;;;;;;0.62;35.86;102569.09;1747668;80;21048;-51
2021/12/22 00:22:18;;;;;;;2.35;2.05;;;;;;;0.62;35.82;102578.05;1770523;80;21033;-52
2021/12/22 00:24:45;;;;;;;5.42;2.58;;;;;;;0.63;35.76;102587.52;1767308;80;21038;-50
2021/12/22 00:27:12;;;;;;;3.52;2.30;;;;;;;0.62;35.74;102594.31;1768918;80;21047;-51
2021/12/22 00:29:38;;;;;;;3.47;2.62;;;;;;;0.63;35.54;102590.97;1773152;80;20996;-52
2021/12/22 00:32:12;;;;;;;3.35;2.33;;;;;;;0.65;35.59;102593.59;1747386;80;21549;-50
2021/12/22 00:34:46;;;;;;;3.85;2.10;;;;;;;0.66;35.54;102588.95;1758134;80;21037;-51
2021/12/22 00:37:07;;;;;;;3.33;2.42;;;;;;;0.66;35.48;102590.23;1749405;80;21065;-51
2021/12/22 00:39:34;;;;;;;4.05;2.22;;;;;;;0.66;35.51;102588.95;1747179;80;21090;-51
2021/12/22 00:42:02;;;;;;;3.90;2.72;;;;;;;0.67;35.50;102589.41;1743597;80;21017;-52
2021/12/22 00:44:29;;;;;;;3.77;2.30;;;;;;;0.65;35.55;102589.75;1761712;80;21037;-51
2021/12/22 00:46:55;;;;;;;3.80;2.42;;;;;;;0.62;35.53;102581.50;1747635;80;20983;-52
2021/12/22 00:49:22;;;;;;;3.55;2.25;;;;;;;0.59;35.65;102581.38;1759780;80;21061;-51
2021/12/22 00:51:48;;;;;;;2.87;2.50;;;;;;;0.57;35.90;102583.38;1761191;80;20983;-51
2021/12/22 00:54:15;;;;;;;3.70;2.60;;;;;;;0.54;35.94;102576.81;1747154;80;21019;-51
2021/12/22 00:56:41;;;;;;;3.62;2.37;;;;;;;0.52;35.99;102582.27;1766267;80;21030;-51
2021/12/22 00:59:08;;;;;;;3.47;2.55;;;;;;;0.51;36.02;102583.09;1772225;80;21015;-52
2021/12/22 01:01:34;;;;;;;3.92;2.70;;;;;;;0.47;36.04;102585.03;1757513;80;21010;-50
2021/12/22 01:04:00;;;;;;;3.02;2.65;;;;;;;0.44;36.18;102579.75;1771056;80;20983;-51
2021/12/22 01:06:27;;;;;;;4.25;2.60;;;;;;;0.42;36.27;102574.95;1760529;80;21050;-51
2021/12/22 01:08:54;;;;;;;2.75;2.20;;;;;;;0.42;36.33;102578.80;1760606;80;21070;-50
2021/12/22 01:11:20;;;;;;;4.03;2.45;;;;;;;0.43;36.33;102575.45;1753380;80;21013;-51
2021/12/22 01:13:46;;;;;;;4.03;2.45;;;;;;;0.40;36.10;102581.30;1758281;80;21466;-51
2021/12/22 01:16:13;;;;;;;3.05;2.12;;;;;;;0.38;36.30;102577.78;1688595;83;21030;-52
2021/12/22 01:18:40;;;;;;;5.15;2.52;;;;;;;0.38;36.31;102580.34;1711145;83;21042;-52
2021/12/22 01:26:29;;;;;;;3.52;2.20;;;;;;;0.41;36.28;102569.37;1657026;86;21086;-51
2021/12/22 01:28:56;;;;;;;4.20;2.30;;;;;;;0.41;36.30;102564.25;1648060;86;21475;-51
2021/12/22 01:31:22;;;;;;;3.83;2.52;;;;;;;0.40;36.31;102565.05;1669861;85;21513;-51
2021/12/22 01:33:48;;;;;;;2.83;2.12;;;;;;;0.41;36.28;102565.11;1649263;86;21058;-51
2021/12/22 01:36:15;;;;;;;3.52;2.37;;;;;;;0.42;36.19;102569.84;1674180;85;21111;-53
2021/12/22 01:38:41;;;;;;;4.50;2.30;;;;;;;0.41;36.04;102560.42;1672943;85;21081;-50
2021/12/22 01:41:08;;;;;;;3.52;2.25;;;;;;;0.42;36.00;102566.00;1664443;85;21088;-51
2021/12/22 01:43:35;;;;;;;3.27;2.40;;;;;;;0.43;36.00;102561.36;1706324;83;21116;-52
2021/12/22 01:51:54;;;;;;;2.33;2.02;;;;;;;0.42;35.83;102576.23;1689310;83;21023;-51
2021/12/22 01:54:50;;;;;;;5.58;2.62;;;;;;;0.41;35.68;102577.06;1720944;83;21091;-51
2021/12/22 01:57:19;;;;;;;7.72;2.65;;;;;;;0.40;35.64;102578.73;1708822;83;21069;-51
2021/12/22 01:59:47;;;;;;;3.85;2.30;;;;;;;0.42;35.56;102572.40;1724818;80;21031;-51
2021/12/22 02:02:14;;;;;;;3.92;2.55;;;;;;;0.40;35.68;102572.73;1775200;80;21101;-51
2021/12/22 02:04:41;;;;;;;2.92;2.33;;;;;;;0.42;35.54;102573.67;1717131;83;20989;-52
2021/12/22 02:07:08;;;;;;;2.50;2.17;;;;;;;0.40;35.53;102571.05;1698216;83;21066;-51
2021/12/22 02:12:11;;;;;;;2.35;2.02;;;;;;;0.41;35.37;102562.98;1717398;82;21097;-52
2021/12/22 02:14:39;;;;;;;3.80;2.17;;;;;;;0.39;35.37;102556.91;1752671;80;20974;-52
2021/12/22 02:17:08;;;;;;;2.58;1.80;;;;;;;0.36;35.44;102560.58;1768661;80;21076;-51
2021/12/22 02:19:39;;;;;;;3.12;2.12;;;;;;;0.36;35.48;102556.34;1759695;80;21101;-51
2021/12/22 02:22:10;;;;;;;;;;;;;;;0.38;35.45;102553.85;1756667;80;21010;-51
2021/12/22 02:24:35;;;;;;;4.10;2.00;;;;;;;0.38;35.38;102548.73;1774397;80;20388;-51
2021/12/22 02:27:07;;;;;;;3.08;2.15;;;;;;;0.37;35.23;102549.55;1765706;80;21475;-52
2021/12/22 02:29:36;;;;;;;2.37;1.80;;;;;;;0.36;35.24;102544.83;1766434;80;21561;-51
2021/12/22 02:32:10;;;;;;;3.00;2.10;;;;;;;0.36;35.11;102543.55;1779396;80;21077;-51
2021/12/22 02:34:40;;;;;;;2.30;1.92;;;;;;;0.38;35.15;102543.61;1690951;83;21023;-51
2021/12/22 02:37:10;;;;;;;2.55;2.00;;;;;;;0.38;35.03;102538.48;1703051;83;21660;-52
2021/12/22 02:39:31;;;;;;;4.58;2.37;;;;;;;0.37;35.08;102537.60;1735816;82;21026;-51
2021/12/22 02:41:57;;;;;;;3.17;2.10;;;;;;;0.37;35.11;102539.31;1723240;82;21062;-51
2021/12/22 02:44:23;;;;;;;2.90;2.05;;;;;;;0.36;35.09;102534.98;1732663;82;21095;-51
2021/12/22 02:46:50;;;;;;;4.25;2.50;;;;;;;0.35;35.12;102526.84;1737198;82;20999;-51
2021/12/22 02:49:17;;;;;;;5.33;2.58;;;;;;;0.32;35.22;102530.52;1736546;82;21555;-51
2021/12/22 02:51:43;;;;;;;4.58;2.00;;;;;;;0.27;35.36;102529.02;1698306;83;21490;-51
2021/12/22 02:54:18;;;;;;;3.42;2.27;;;;;;;0.25;35.29;102531.05;1757196;80;21566;-51
2021/12/22 03:04:50;;;;;;;3.92;2.55;;;;;;;0.23;35.52;102528.39;1674433;84;21553;-50
2021/12/22 03:07:15;;;;;;;4.70;2.52;;;;;;;0.20;35.47;102528.66;1671971;84;21076;-50
2021/12/22 03:09:41;;;;;;;4.78;2.52;;;;;;;0.15;35.71;102524.98;1661428;84;21054;-50
2021/12/22 03:12:12;;;;;;;3.67;2.90;;;;;;;0.15;35.71;102531.37;1670903;85;21069;-50
2021/12/22 03:14:40;;;;;;;4.58;2.95;;;;;;;0.13;35.80;102529.15;1667746;85;21508;-51
2021/12/22 03:17:07;;;;;;;5.72;2.87;;;;;;;0.14;35.77;102527.08;1671667;84;21117;-51
2021/12/22 03:19:35;;;;;;;4.25;2.90;;;;;;;0.16;35.82;102524.20;1668047;84;21083;-49
2021/12/22 03:22:04;;;;;;;3.58;2.60;;;;;;;0.18;35.80;102517.47;1659282;85;21044;-50
2021/12/22 03:24:35;;;;;;;4.05;2.27;;;;;;;0.20;35.79;102520.58;1663806;85;21092;-51
2021/12/22 03:27:03;;;;;;;4.45;2.77;;;;;;;0.19;35.75;102523.05;1678159;84;21057;-50
2021/12/22 03:29:32;;;;;;;5.45;2.90;;;;;;;0.18;35.88;102527.31;1688930;83;20993;-50
2021/12/22 03:31:58;;;;;;;4.17;2.75;;;;;;;0.18;36.04;102520.91;1672375;84;21040;-50
2021/12/22 03:34:25;;;;;;;3.45;2.45;;;;;;;0.18;35.95;102514.91;1668558;84;21104;-49
2021/12/22 03:36:53;;;;;;;5.30;2.52;;;;;;;0.19;35.96;102514.08;1684462;84;21057;-50
2021/12/22 03:39:20;;;;;;;4.10;2.92;;;;;;;0.19;36.00;102520.48;1723079;81;21010;-49
2021/12/22 03:41:47;;;;;;;3.37;2.27;;;;;;;0.19;36.07;102533.28;1764767;80;21054;-50
2021/12/22 03:44:13;;;;;;;3.05;2.10;;;;;;;0.18;36.00;102523.86;1752745;80;21502;-51
2021/12/22 03:46:41;;;;;;;3.00;2.30;;;;;;;0.17;36.19;102528.49;1757939;80;21062;-50
2021/12/22 03:49:09;;;;;;;4.47;2.42;;;;;;;0.17;36.24;102531.05;1743861;80;21035;-51
2021/12/22 03:51:36;;;;;;;4.85;2.42;;;;;;;0.16;36.28;102528.03;1756967;80;21044;-50
2021/12/22 03:54:05;;;;;;;3.25;2.40;;;;;;;0.16;36.43;102530.59;1757582;80;20999;-50
2021/12/22 03:56:31;;;;;;;5.30;2.62;;;;;;;0.14;36.38;102529.64;1760738;80;21509;-49
2021/12/22 03:58:58;;;;;;;4.25;2.80;;;;;;;0.13;36.40;102538.11;1761706;80;21534;-51
2021/12/22 04:01:24;;;;;;;3.72;2.08;;;;;;;0.10;36.34;102550.77;1747796;80;21023;-50
2021/12/22 04:03:55;;;;;;;2.65;2.37;;;;;;;0.04;36.42;102549.20;1751571;80;21046;-50
2021/12/22 04:06:20;;;;;;;2.27;2.02;;;;;;;-0.03;36.56;102556.58;1753690;80;21031;-51
2021/12/22 04:08:46;;;;;;;3.10;2.12;;;;;;;-0.05;36.66;102554.34;1754458;80;21496;-50
2021/12/22 04:11:13;;;;;;;4.47;2.37;;;;;;;-0.04;36.68;102560.31;1710325;83;21075;-50
2021/12/22 04:13:40;;;;;;;4.42;2.08;;;;;;;-0.04;36.67;102558.64;1713383;82;21007;-52
2021/12/22 04:16:07;;;;;;;2.75;2.30;;;;;;;-0.05;36.63;102548.34;1707482;83;21039;-51
2021/12/22 04:18:33;;;;;;;3.22;2.30;;;;;;;-0.08;36.75;102551.62;1716067;82;21074;-52
2021/12/22 04:21:00;;;;;;;6.10;2.72;;;;;;;-0.09;36.85;102552.44;1718362;82;21010;-52
2021/12/22 04:23:28;;;;;;;3.80;2.10;;;;;;;-0.09;36.88;102552.44;1704831;83;21040;-51
2021/12/22 04:25:54;;;;;;;6.62;2.05;;;;;;;-0.10;36.87;102555.78;1704619;83;21493;-52
2021/12/22 04:28:21;;;;;;;2.42;2.15;;;;;;;-0.12;36.96;102561.61;1698218;84;21031;-51
2021/12/22 04:30:49;;;;;;;5.37;2.30;;;;;;;-0.12;37.12;102565.06;1706726;83;21062;-52
2021/12/22 04:33:19;;;;;;;3.35;2.10;;;;;;;-0.10;37.10;102577.53;1694210;83;21078;-51
2021/12/22 04:35:47;;;;;;;2.60;2.20;;;;;;;-0.10;36.97;102577.53;1700696;83;21559;-51
2021/12/22 04:38:14;;;;;;;3.40;2.50;;;;;;;-0.13;37.02;102573.55;1707995;84;21043;-52
2021/12/22 04:40:42;;;;;;;2.98;1.90;;;;;;;-0.14;37.13;102571.78;1700913;83;21038;-52
2021/12/22 04:43:09;;;;;;;3.70;2.20;;;;;;;-0.14;37.11;102574.34;1713926;83;21094;-52
2021/12/22 04:45:35;;;;;;;5.28;2.65;;;;;;;-0.13;37.05;102574.83;1753568;80;21003;-51
2021/12/22 04:48:04;;;;;;;2.30;2.10;;;;;;;-0.11;37.02;102587.70;1767551;80;21085;-51
2021/12/22 04:50:33;;;;;;;2.85;2.25;;;;;;;-0.13;37.03;102588.91;1781232;80;21073;-51
2021/12/22 04:53:12;;;;;;;3.87;2.10;;;;;;;-0.14;37.06;102597.36;1756820;80;21534;-51
2021/12/22 04:55:36;;;;;;;3.52;2.30;;;;;;;-0.15;37.20;102593.06;1744805;80;21112;-52
2021/12/22 04:58:02;;;;;;;4.05;2.55;;;;;;;-0.16;37.25;102595.13;1724375;81;21042;-51
2021/12/22 05:00:33;;;;;;;3.98;2.60;;;;;;;-0.14;37.32;102590.97;1761993;80;21070;-51
2021/12/22 05:02:59;;;;;;;4.35;2.70;;;;;;;-0.10;37.25;102589.44;1769628;80;21075;-52
2021/12/22 05:05:25;;;;;;;4.12;2.22;;;;;;;-0.10;37.19;102583.92;1766316;80;21049;-51
2021/12/22 05:07:53;;;;;;;3.22;2.55;;;;;;;-0.09;37.18;102593.38;1769773;80;21024;-51
2021/12/22 05:10:20;;;;;;;5.67;2.40;;;;;;;-0.07;37.22;102596.00;1764801;80;21061;-51
2021/12/22 05:12:48;;;;;;;3.52;2.50;;;;;;;-0.05;37.33;102592.73;1771744;80;21521;-52
2021/12/22 05:15:21;;;;;;;4.00;3.10;;;;;;;-0.03;37.31;102594.07;1757023;80;21062;-52
2021/12/22 05:20:20;;;;;;;4.12;2.75;;;;;;;0.03;37.32;102603.73;1632386;86;21597;-52
2021/12/22 05:22:47;;;;;;;5.60;2.77;;;;;;;0.05;37.22;102600.84;1621692;86;21050;-50
2021/12/22 05:25:14;;;;;;;5.08;2.95;;;;;;;0.06;37.32;102606.45;1613956;88;21046;-51
2021/12/22 05:27:41;;;;;;;2.65;2.08;;;;;;;0.06;37.26;102600.05;1665887;85;21067;-51
2021/12/22 05:30:11;;;;;;;5.37;2.70;;;;;;;0.03;37.22;102605.00;1614611;88;21106;-51
2021/12/22 05:32:37;;;;;;;4.80;2.85;;;;;;;0.00;37.33;102609.17;1666398;85;21063;-51
2021/12/22 05:35:07;;;;;;;6.05;2.50;;;;;;;-0.01;37.45;102599.75;1609277;87;21090;-52
2021/12/22 05:37:36;;;;;;;4.83;2.25;;;;;;;-0.01;37.55;102604.88;1614573;88;21142;-51
2021/12/22 05:40:05;;;;;;;7.05;2.40;;;;;;;-0.02;37.50;102607.33;1626414;88;21114;-51
2021/12/22 05:42:32;;;;;;;5.37;2.90;;;;;;;-0.06;37.61;102616.94;1619553;87;21156;-51
2021/12/22 05:44:58;;;;;;;3.60;2.70;;;;;;;-0.07;37.61;102616.08;1625122;88;21039;-52
2021/12/22 05:47:25;;;;;;;3.37;2.45;;;;;;;-0.05;37.73;102618.31;1622721;88;21050;-51
2021/12/22 05:49:51;;;;;;;5.90;2.80;;;;;;;-0.01;37.75;102622.78;1620556;88;21047;-50
2021/12/22 05:52:17;;;;;;;4.00;3.10;;;;;;;-0.02;37.75;102623.57;1620371;88;21155;-51
2021/12/22 05:54:45;;;;;;;6.50;3.15;;;;;;;-0.02;37.88;102622.69;1611767;88;21038;-51
2021/12/22 05:57:12;;;;;;;8.08;3.10;;;;;;;-0.02;37.92;102626.13;1621098;87;21100;-51
2021/12/22 05:59:38;;;;;;;5.15;3.05;;;;;;;-0.03;37.91;102628.62;1622537;88;21119;-50
2021/12/22 06:02:04;;;;;;;4.42;3.17;;;;;;;-0.03;38.07;102626.95;1623414;88;21050;-51
2021/12/22 06:04:32;;;;;;;4.03;2.80;;;;;;;-0.02;38.09;102630.36;1621503;88;21610;-52
2021/12/22 06:06:59;;;;;;;4.83;3.02;;;;;;;-0.03;38.16;102639.73;1666041;85;21563;-51
2021/12/22 06:09:25;;;;;;;5.33;3.15;;;;;;;-0.02;38.19;102633.80;1663804;85;21078;-51
2021/12/22 06:11:52;;;;;;;3.80;3.12;;;;;;;0.02;38.29;102637.42;1666147;85;21087;-51
2021/12/22 06:14:19;;;;;;;5.83;4.28;;;;;;;0.03;38.33;102632.77;1598320;88;21070;-51
2021/12/22 06:16:45;;;;;;;6.33;3.00;;;;;;;0.02;38.35;102630.14;1677976;82;21014;-50
2021/12/22 06:19:13;;;;;;;6.90;2.90;;;;;;;0.04;38.43;102628.53;1750443;80;21034;-51
2021/12/22 06:21:40;;;;;;;6.75;2.67;;;;;;;0.09;38.50;102633.46;1783866;80;21038;-51
2021/12/22 06:24:08;;;;;;;3.77;2.80;;;;;;;0.10;38.42;102632.67;1773626;80;21545;-51
2021/12/22 06:26:34;;;;;;;8.93;4.90;;;;;;;0.09;38.48;102633.46;1754051;80;21733;-50
2021/12/22 06:29:02;;;;;;;4.50;2.95;;;;;;;0.12;38.58;102636.19;1780132;80;21038;-51
2021/12/22 06:31:28;;;;;;;4.05;3.05;;;;;;;0.15;38.53;102635.94;1778115;80;21057;-52
2021/12/22 06:33:55;;;;;;;6.85;2.83;;;;;;;0.19;38.61;102651.03;1762263;80;21192;-51
2021/12/22 06:36:21;;;;;;;6.80;2.98;;;;;;;0.19;38.53;102648.48;1762040;80;21014;-51
2021/12/22 06:38:47;;;;;;;7.28;3.83;;;;;;;0.22;38.67;102648.64;1780465;80;21014;-51
2021/12/22 06:41:14;;;;;;;5.42;3.15;;;;;;;0.28;38.67;102652.78;1760667;80;21091;-52
2021/12/22 06:43:40;;;;;;;4.08;3.10;;;;;;;0.34;38.61;102656.93;1755217;80;21074;-51
2021/12/22 06:46:09;;;;;;;4.40;3.27;;;;;;;0.39;38.62;102659.33;1762379;80;21121;-51
2021/12/22 06:48:36;;;;;;;7.95;3.30;;;;;;;0.43;38.58;102657.40;1765483;80;21021;-52
2021/12/22 06:51:03;;;;;;;4.40;2.70;;;;;;;0.48;38.41;102663.61;1761615;80;21523;-51
2021/12/22 06:53:34;;;;;;;6.10;3.50;;;;;;;0.51;38.33;102666.33;1777806;80;21483;-51
2021/12/22 06:55:58;;;;;;;3.15;2.70;;;;;;;0.54;38.33;102663.91;1781092;80;21030;-51
2021/12/22 06:58:25;;;;;;;4.55;3.30;;;;;;;0.57;38.33;102662.39;1769843;80;20999;-51
2021/12/22 07:00:52;;;;;;;6.22;3.45;;;;;;;0.60;38.29;102659.08;1762464;80;21034;-52
2021/12/22 07:03:18;;;;;;;3.85;2.85;;;;;;;0.63;38.44;102657.96;1779246;80;21092;-52
2021/12/22 07:05:44;;;;;;;5.37;3.72;;;;;;;0.67;38.36;102658.58;1749082;80;21028;-51
2021/12/22 07:08:11;;;;;;;5.45;2.95;;;;;;;0.70;38.38;102650.63;1755378;80;21059;-52
2021/12/22 07:10:37;;;;;;;5.20;3.10;;;;;;;0.77;38.47;102650.53;1763155;80;21011;-51
2021/12/22 07:13:04;;;;;;;8.33;3.72;;;;;;;0.84;38.30;102655.16;1759992;80;21018;-51
2021/12/22 07:15:30;;;;;;;5.20;3.42;;;;;;;0.86;38.19;102661.23;1758292;80;21121;-52
2021/12/22 07:17:57;;;;;;;7.55;3.60;;;;;;;0.90;38.24;102658.41;1768777;80;21037;-51
2021/12/22 07:20:23;;;;;;;4.90;3.30;;;;;;;0.94;38.25;102658.62;1760552;80;21039;-52
2021/12/22 07:22:50;;;;;;;8.48;3.92;;;;;;;0.96;38.21;102664.70;1746702;80;21039;-52
2021/12/22 07:25:18;;;;;;;5.37;3.85;;;;;;;1.00;38.16;102664.44;1746000;80;21466;-51
2021/12/22 07:27:45;;;;;;;6.95;3.60;;;;;;;1.02;38.14;102666.66;1746879;80;21015;-51
2021/12/22 07:30:13;;;;;;;5.53;3.98;;;;;;;1.03;38.25;102673.14;1763258;80;21498;-52
2021/12/22 07:32:40;;;;;;;7.67;3.92;;;;;;;1.08;38.30;102674.25;1773807;80;21100;-51
2021/12/22 07:35:24;;;;;;;5.67;3.92;;;;;;;1.10;38.21;102672.63;1775674;80;21077;-52
2021/12/22 07:38:11;;;;;;;5.22;4.20;;;;;;;1.14;38.32;102676.20;1700682;83;21114;-51
2021/12/22 07:40:38;;;;;;;5.15;3.90;;;;;;;1.18;38.31;102668.73;1695672;84;21038;-51
2021/12/22 07:43:05;;;;;;;6.87;4.05;;;;;;;1.23;38.20;102667.28;1668400;85;21107;-50
2021/12/22 07:45:32;;;;;;;5.75;4.03;;;;;;;1.27;38.39;102661.48;1640226;86;21074;-51
2021/12/22 07:47:59;;;;;;;5.00;3.87;;;;;;;1.32;38.34;102670.25;1691382;84;21072;-52
2021/12/22 07:50:25;;;;;;;5.83;3.92;;;;;;;1.37;38.38;102668.78;1696427;84;21091;-51
2021/12/22 07:52:51;;;;;;;6.83;3.92;;;;;;;1.42;38.33;102667.29;1704250;83;21083;-52
2021/12/22 07:55:18;;;;;;;5.28;4.00;;;;;;;1.47;38.25;102665.83;1705349;84;21113;-51
2021/12/22 07:57:45;;;;;;;6.75;4.30;;;;;;;1.53;38.25;102668.66;1675319;85;21035;-51
2021/12/22 08:00:13;;;;;;;5.55;3.83;;;;;;;1.57;38.36;102670.55;1645744;86;21034;-53
2021/12/22 08:02:40;;;;;;;7.53;4.67;;;;;;;1.63;38.27;102663.13;1666296;86;21021;-51
2021/12/22 08:05:08;;;;;;;6.47;4.10;;;;;;;1.69;38.38;102665.52;1698772;83;21532;-50
2021/12/22 08:07:34;;;;;;;7.83;3.90;;;;;;;1.74;38.49;102662.72;1659866;85;20996;-51
2021/12/22 08:10:04;;;;;;;4.87;3.70;;;;;;;1.82;38.25;102662.66;1663764;85;21624;-50
2021/12/22 08:12:31;;;;;;;6.42;4.67;;;;;;;1.87;38.27;102663.75;1648203;86;21541;-51
2021/12/22 08:14:57;;;;;;;8.60;3.85;;;;;;;1.95;38.11;102665.84;1667248;83;21523;-51
2021/12/22 08:17:27;;;;;;;8.83;4.20;;;;;;;2.02;37.94;102664.42;1708037;83;21587;-51
2021/12/22 08:19:52;;;;;;;5.70;4.20;;;;;;;2.09;37.89;102663.45;1708992;83;21191;-50
2021/12/22 08:22:19;;;;;;;6.15;4.62;;;;;;;2.17;37.75;102665.05;1701243;83;21026;-50
2021/12/22 08:24:47;;;;;;;7.55;3.60;;;;;;;2.23;37.51;102669.16;1748010;80;21609;-51
2021/12/22 08:27:13;;;;;;;6.22;3.77;;;;;;;2.29;37.43;102663.00;1758689;80;21511;-52
2021/12/22 08:29:42;;;;;;;6.45;4.42;;;;;;;2.34;37.17;102656.38;1757762;80;21043;-52
2021/12/22 08:32:10;;;;;;;5.80;3.62;;;;;;;2.40;37.35;102661.77;1751093;80;21097;-52
2021/12/22 08:34:40;;;;;;;4.30;3.80;;;;;;;2.47;37.12;102665.08;1745710;80;21547;-52
2021/12/22 08:39:55;;;;;;;5.45;3.80;;;;;;;2.54;36.63;102661.92;1761546;80;21066;-52
2021/12/22 08:42:22;;;;;;;9.60;4.08;;;;;;;2.57;36.72;102662.06;1757472;80;21543;-52
2021/12/22 08:44:49;;;;;;;5.75;4.08;;;;;;;2.60;36.55;102662.17;1754322;80;21078;-52
2021/12/22 08:47:16;;;;;;;5.10;3.90;;;;;;;2.62;36.43;102659.25;1758474;80;21045;-52
2021/12/22 08:49:43;;;;;;;5.58;3.98;;;;;;;2.63;36.20;102659.73;1768265;80;21061;-51
2021/12/22 08:52:10;;;;;;;5.08;3.92;;;;;;;2.64;36.25;102661.48;1760397;80;21565;-51
2021/12/22 08:54:38;;;;;;;5.37;4.05;;;;;;;2.66;36.34;102657.28;1753575;80;21168;-51
2021/12/22 08:57:05;;;;;;;5.05;4.08;;;;;;;2.70;36.25;102657.87;1760732;80;21549;-51
2021/12/22 08:59:32;;;;;;;8.08;4.37;;;;;;;2.73;36.13;102664.44;1743987;81;21011;-51
2021/12/22 09:01:58;;;;;;;5.17;3.47;;;;;;;2.75;36.01;102657.66;1746915;80;21045;-52
2021/12/22 09:04:25;;;;;;;6.28;4.00;;;;;;;2.77;36.14;102658.59;1763960;80;21018;-51
2021/12/22 09:06:52;;;;;;;4.50;3.17;;;;;;;2.81;36.03;102650.19;1752269;80;21035;-51
2021/12/22 09:09:21;;;;;;;5.62;3.95;;;;;;;2.84;36.03;102647.75;1781282;80;21066;-52
2021/12/22 09:11:48;;;;;;;5.10;3.87;;;;;;;2.90;36.12;102646.70;1750446;80;21019;-51
2021/12/22 09:14:14;;;;;;;5.42;3.92;;;;;;;2.98;36.10;102646.59;1777813;80;21050;-52
2021/12/22 09:16:43;;;;;;;6.10;4.15;;;;;;;3.06;35.98;102648.16;1784006;80;21073;-53
2021/12/22 09:19:09;;;;;;;7.08;4.00;;;;;;;3.12;35.94;102642.86;1761655;80;21075;-51
2021/12/22 09:21:36;;;;;;;5.35;4.00;;;;;;;3.21;36.00;102638.05;1767168;80;21130;-51
2021/12/22 09:24:03;;;;;;;4.62;3.75;;;;;;;3.34;36.01;102630.81;1761034;80;21526;-52
2021/12/22 09:26:30;;;;;;;5.20;4.25;;;;;;;3.43;35.23;102636.28;1753648;81;21044;-50
2021/12/22 09:28:57;;;;;;;5.12;3.85;;;;;;;3.51;35.25;102625.85;1740232;80;21052;-51
2021/12/22 09:31:24;;;;;;;4.62;3.85;;;;;;;3.58;35.03;102625.27;1756965;80;21053;-52
2021/12/22 09:33:51;;;;;;;9.33;4.87;;;;;;;3.62;34.63;102622.87;1777463;80;21065;-51
2021/12/22 09:36:17;;;;;;;4.75;3.77;;;;;;;3.68;34.62;102619.63;1758856;80;21030;-52
2021/12/22 09:38:44;;;;;;;7.00;4.15;;;;;;;3.73;34.39;102607.81;1758199;80;21125;-51
2021/12/22 09:41:11;;;;;;;5.87;4.30;;;;;;;3.78;34.17;102607.54;1769955;80;21018;-51
2021/12/22 09:43:40;;;;;;;5.10;4.12;;;;;;;3.83;34.15;102612.45;1748763;80;21075;-51
2021/12/22 09:46:10;;;;;;;5.67;3.90;;;;;;;3.88;33.99;102605.75;1756688;80;21486;-51
2021/12/22 09:53:34;;;;;;;4.92;3.87;;;;;;;4.11;33.56;102604.84;1755949;80;21050;-51
2021/12/22 09:56:00;;;;;;;6.28;4.12;;;;;;;4.16;33.80;102598.56;1736252;80;21019;-51
2021/12/22 09:58:27;;;;;;;6.75;4.20;;;;;;;4.22;33.59;102598.77;1753576;81;21011;-51
2021/12/22 10:00:54;;;;;;;6.47;4.30;;;;;;;4.26;33.15;102601.50;1756470;80;21018;-52
2021/12/22 10:03:21;;;;;;;6.10;4.15;;;;;;;4.29;33.30;102600.70;1753806;80;21125;-51
2021/12/22 10:05:48;;;;;;;6.35;3.95;;;;;;;4.33;33.14;102600.86;1771191;80;20991;-52
2021/12/22 10:08:23;;;;;;;5.70;4.22;;;;;;;4.35;32.96;102592.77;1757673;80;21055;-51
2021/12/22 10:11:10;;;;;;;6.20;3.87;;;;;;;4.32;32.75;102587.93;1753735;80;21049;-50
2021/12/22 10:13:43;;;;;;;6.28;3.80;;;;;;;4.30;32.53;102584.02;1766355;80;21003;-51
2021/12/22 10:16:15;;;;;;;5.92;3.67;;;;;;;4.30;32.66;102589.17;1759623;80;20999;-51
2021/12/22 10:18:42;;;;;;;5.62;3.98;;;;;;;4.30;32.92;102591.75;1711785;83;21136;-52
2021/12/22 10:23:51;;;;;;;6.95;3.98;;;;;;;4.40;32.88;102583.49;1622932;86;21054;-52
2021/12/22 10:26:23;;;;;;;6.30;3.92;;;;;;;4.51;33.05;102582.55;1599566;88;21055;-52
2021/12/22 10:28:57;;;;;;;14.10;8.35;;;;;;;4.58;33.11;102573.76;1550633;91;21112;-52
2021/12/22 10:31:40;;;;;;;28.52;18.05;;;;;;;4.65;33.00;102578.70;1538523;92;21130;-51
2021/12/22 10:34:17;;;;;;;12.55;10.13;;;;;;;4.70;33.07;102579.70;1536430;93;21099;-52
2021/12/22 10:36:49;;;;;;;7.55;5.78;;;;;;;4.72;33.28;102566.03;1527060;93;21081;-51
2021/12/22 10:39:24;;;;;;;5.70;4.60;;;;;;;4.76;33.41;102572.18;1532431;93;21119;-52
2021/12/22 10:41:51;;;;;;;5.10;3.87;;;;;;;4.82;33.38;102569.34;1486710;95;21108;-51
2021/12/22 10:44:19;;;;;;;5.53;4.08;;;;;;;4.86;33.56;102559.58;1490145;96;21125;-51
2021/12/22 10:46:49;;;;;;;7.00;4.12;;;;;;;4.87;33.54;102558.77;1490216;95;21129;-51
2021/12/22 10:49:20;;;;;;;5.33;3.90;;;;;;;4.90;33.40;102557.55;1490202;95;21105;-51
2021/12/22 10:51:59;;;;;;;5.53;3.60;;;;;;;4.90;33.21;102550.26;1447865;98;21179;-51
2021/12/22 10:54:34;;;;;;;6.65;3.37;;;;;;;4.91;33.20;102556.73;1447531;98;21140;-50
2021/12/22 10:57:05;;;;;;;5.25;3.62;;;;;;;4.92;33.16;102564.92;1447806;98;21607;-50
2021/12/22 10:59:49;;;;;;;5.50;3.77;;;;;;;4.94;32.97;102551.69;1445972;98;21136;-50
2021/12/22 11:02:26;;;;;;;4.70;3.60;;;;;;;5.00;32.98;102548.81;1405233;101;21119;-49
2021/12/22 11:04:52;;;;;;;4.97;3.60;;;;;;;5.06;33.10;102553.74;1405184;101;21227;-50
2021/12/22 11:09:50;;;;;;;7.42;3.15;;;;;;;5.20;33.00;102543.80;1379272;103;21131;-50
2021/12/22 11:12:17;;;;;;;7.47;4.15;;;;;;;5.25;32.76;102540.55;1378696;103;21049;-50
2021/12/22 11:14:50;;;;;;;6.53;4.10;;;;;;;5.30;32.73;102536.77;1384386;100;21125;-49
2021/12/22 11:17:21;;;;;;;7.65;3.98;;;;;;;5.33;32.77;102542.03;1412291;100;21153;-50
2021/12/22 11:20:04;;;;;;;6.33;4.55;;;;;;;5.37;32.92;102538.30;1448645;98;21119;-50
2021/12/22 11:22:51;;;;;;;4.60;3.80;;;;;;;5.38;33.18;102532.73;1418623;100;21160;-50
2021/12/22 11:25:12;;;;;;;6.45;3.75;;;;;;;5.36;32.83;102530.08;1355023;104;21136;-49
2021/12/22 11:27:39;;;;;;;5.90;3.67;;;;;;;5.32;32.85;102527.36;1368201;103;21249;-50
2021/12/22 11:30:08;;;;;;;5.30;3.72;;;;;;;5.30;32.98;102522.17;1408328;101;21114;-50
2021/12/22 11:32:34;;;;;;;4.03;3.00;;;;;;;5.29;33.04;102528.59;1379164;103;21174;-49
2021/12/22 11:35:05;;;;;;;6.10;3.83;;;;;;;5.28;33.14;102529.41;1380830;102;21181;-50
2021/12/22 11:37:32;;;;;;;4.20;3.47;;;;;;;5.26;33.24;102537.52;1355473;105;21227;-52
2021/12/22 11:39:59;;;;;;;6.17;4.10;;;;;;;5.25;33.24;102525.47;1354009;105;21285;-50
2021/12/22 11:42:31;;;;;;;4.55;3.65;;;;;;;5.25;33.47;102529.34;1356861;105;21128;-50
2021/12/22 11:44:59;;;;;;;4.60;3.83;;;;;;;5.27;33.44;102533.72;1384091;100;21127;-50
2021/12/22 11:47:26;;;;;;;4.42;3.65;;;;;;;5.30;33.42;102529.03;1381725;101;21175;-50
2021/12/22 11:49:58;;;;;;;4.33;3.35;;;;;;;5.35;33.30;102535.20;1421788;99;21085;-50
2021/12/22 11:52:43;;;;;;;5.55;3.77;;;;;;;5.36;33.30;102533.06;1422788;100;21128;-49
2021/12/22 11:55:22;;;;;;;8.00;3.47;;;;;;;5.37;33.13;102533.55;1431029;99;21101;-51
2021/12/22 11:57:52;;;;;;;6.40;4.00;;;;;;;5.36;33.23;102533.06;1411283;98;21192;-50
2021/12/22 12:00:26;;;;;;;4.58;3.52;;;;;;;5.38;33.26;102537.89;1470124;96;21109;-50
2021/12/22 12:02:55;;;;;;;19.82;4.67;;;;;;;5.40;33.12;102540.09;1462106;95;21298;-50
2021/12/22 12:05:28;;;;;;;6.35;5.00;;;;;;;5.42;33.20;102535.41;1463795;96;21341;-50
2021/12/22 12:08:01;;;;;;;7.17;4.25;;;;;;;5.46;33.31;102533.81;1494934;94;21627;-50
2021/12/22 12:10:40;;;;;;;4.67;3.30;;;;;;;5.49;33.47;102531.29;1472186;97;21090;-50
2021/12/22 12:22:17;;;;;;;6.95;4.28;;;;;;;5.50;33.44;102536.93;1478980;96;21135;-50